map of IBR home
IBR - Airport
Location
City:  Omitama, Ibaraki, Japan
Near (Alt.):Tsuchiura
Name:Ibaraki Airport
Old (Alt.):Hyakuri AB
ICAO:RJAH
IATA:IBR

Details
Type:Airport (Aerodrome, Airfield)
Use:Public/Civil, Military
Latitude:36°10'54"N (36.181667)
Longitude:140°24'53"E (140.414722)
Elevation:107 ft (33 m)
Variation:7.60°W (WMM2015 magnetic declination)
-0.06° annual change
Runways:2
Longest:8858 × 148 ft (2700 × 45 m), paved

Time
Time Zone:UTC+9
Local Time:

Weather
METAR:RJAH 220400Z 30007KT 260V330 9999 FEW030 11/M09 Q1009
TAF:RJAH 212306Z 2200/2306 30006KT 9999 FEW030
BECMG 2300/2303 22010KT

Related Locations
Nearby:
Farthest:SNPV: 11703 mi / 18834 km
Mostardas [Solidão], RS, BR

Find:

   beyond  
but within

Other Information
Maps:
NOTAMs:
Links:
Sources:

  
  • flag of Japan
  • flag of Ibaraki
  

Sectional Chart

Flight Planning
at skyvector.com

Satellite Image

Google Maps Satellite view

 

Copyright © 2004-2019 Karl L. Swartz. All rights reserved.
The Great Circle Mapper name and logo are trademarks of the Great Circle Mapper.
All other trademarks mentioned herein belong to their respective owners.
Please see credits for attibutions and further copyright information.

  Follow gcmap on Facebook Follow gcmap on Twitter Follow gcmap on Google+ GCmap on LinkedIn

hCard Microformat

Geo Microformat